createdAt,value
2018-02-22T00:00:51.726Z,0
2018-02-22T00:01:51.709Z,0
2018-02-22T00:02:51.746Z,0
2018-02-22T00:03:51.723Z,0
2018-02-22T00:04:51.757Z,0
2018-02-22T00:05:51.711Z,0
2018-02-22T00:06:51.748Z,0
2018-02-22T00:07:51.791Z,0
2018-02-22T00:08:51.707Z,0
2018-02-22T00:09:51.751Z,0
2018-02-22T00:10:51.762Z,0
2018-02-22T00:11:51.750Z,0
2018-02-22T00:12:51.759Z,0
2018-02-22T00:13:51.871Z,0
2018-02-22T00:14:51.751Z,0
2018-02-22T00:15:51.758Z,0
2018-02-22T00:16:51.822Z,0
2018-02-22T00:17:51.808Z,0
2018-02-22T00:18:51.788Z,0
2018-02-22T00:19:51.707Z,0
2018-02-22T00:20:51.730Z,0
2018-02-22T00:21:51.726Z,0
2018-02-22T00:22:51.736Z,0
2018-02-22T00:23:51.723Z,0
2018-02-22T00:24:51.803Z,0
2018-02-22T00:25:51.729Z,0
2018-02-22T00:26:51.729Z,0
2018-02-22T00:27:51.808Z,0
2018-02-22T00:28:51.728Z,0
2018-02-22T00:29:51.811Z,0
2018-02-22T00:30:51.804Z,0
2018-02-22T00:31:51.791Z,0
2018-02-22T00:32:51.721Z,0
2018-02-22T00:33:51.795Z,0
2018-02-22T00:34:51.723Z,0
2018-02-22T00:35:51.794Z,0
2018-02-22T00:36:51.718Z,0
2018-02-22T00:37:51.797Z,0
2018-02-22T00:38:51.723Z,0
2018-02-22T00:39:51.797Z,0
2018-02-22T00:40:51.733Z,0
2018-02-22T00:41:51.818Z,0
2018-02-22T00:42:51.813Z,0
2018-02-22T00:43:51.809Z,0
2018-02-22T00:44:51.741Z,0
2018-02-22T00:45:51.826Z,0
2018-02-22T00:46:51.812Z,0
2018-02-22T00:47:51.740Z,0
2018-02-22T00:48:51.818Z,0
2018-02-22T00:49:51.743Z,0
2018-02-22T00:50:51.696Z,0
2018-02-22T00:51:51.869Z,0
2018-02-22T00:52:51.788Z,0
2018-02-22T00:53:51.716Z,0
2018-02-22T00:54:51.842Z,0
2018-02-22T00:55:51.728Z,0
2018-02-22T00:56:51.822Z,0
2018-02-22T00:57:51.788Z,0
2018-02-22T00:58:51.842Z,0
2018-02-22T00:59:51.840Z,0
2018-02-22T01:00:51.738Z,0
2018-02-22T01:01:51.889Z,0
2018-02-22T01:02:51.800Z,0
2018-02-22T01:03:51.849Z,0
2018-02-22T01:04:51.776Z,0
2018-02-22T01:05:51.853Z,0
2018-02-22T01:06:51.852Z,0
2018-02-22T01:07:51.824Z,0
2018-02-22T01:08:51.856Z,0
2018-02-22T01:09:51.793Z,0
2018-02-22T01:10:51.852Z,0
2018-02-22T01:11:51.847Z,0
2018-02-22T01:12:51.819Z,0
2018-02-22T01:13:51.851Z,0
2018-02-22T01:14:51.853Z,0
2018-02-22T01:15:51.824Z,0
2018-02-22T01:16:51.828Z,0
2018-02-22T01:17:51.823Z,0
2018-02-22T01:18:51.828Z,0
2018-02-22T01:19:51.767Z,0
2018-02-22T01:20:51.828Z,0
2018-02-22T01:21:51.751Z,0
2018-02-22T01:22:51.822Z,0
2018-02-22T01:23:51.777Z,0
2018-02-22T01:24:51.752Z,0
2018-02-22T01:25:51.823Z,0
2018-02-22T01:26:51.755Z,0
2018-02-22T01:27:51.826Z,0
2018-02-22T01:28:51.755Z,0
2018-02-22T01:29:51.880Z,0
2018-02-22T01:30:51.829Z,0
2018-02-22T01:31:51.737Z,0
2018-02-22T01:32:51.837Z,0
2018-02-22T01:33:51.761Z,0
2018-02-22T01:34:51.876Z,0
2018-02-22T01:35:51.862Z,0
2018-02-22T01:36:51.811Z,0
2018-02-22T01:37:51.839Z,0
2018-02-22T01:38:51.761Z,0
2018-02-22T01:39:51.744Z,0
2018-02-22T01:40:51.813Z,0
2018-02-22T01:41:51.810Z,0
2018-02-22T01:42:51.872Z,0
2018-02-22T01:43:51.770Z,0
2018-02-22T01:44:51.764Z,0
2018-02-22T01:45:51.871Z,0
2018-02-22T01:46:51.761Z,0
2018-02-22T01:47:51.748Z,0
2018-02-22T01:48:51.842Z,0
2018-02-22T01:49:51.872Z,0
2018-02-22T01:50:51.764Z,0
2018-02-22T01:51:51.806Z,0
2018-02-22T01:52:51.769Z,0
2018-02-22T01:53:51.810Z,0
2018-02-22T01:54:51.812Z,0
2018-02-22T01:55:51.906Z,0
2018-02-22T01:56:51.817Z,0
2018-02-22T01:57:51.848Z,0
2018-02-22T01:58:51.853Z,0
2018-02-22T01:59:51.890Z,0
2018-02-22T02:00:51.879Z,0
2018-02-22T02:01:51.822Z,0
2018-02-22T02:02:51.775Z,0
2018-02-22T02:03:51.761Z,0
2018-02-22T02:04:51.772Z,0
2018-02-22T02:05:51.866Z,0
2018-02-22T02:06:51.822Z,0
2018-02-22T02:07:51.860Z,0
2018-02-22T02:08:51.858Z,0
2018-02-22T02:09:51.825Z,0
2018-02-22T02:10:51.778Z,0
2018-02-22T02:11:51.853Z,0
2018-02-22T02:12:51.784Z,0
2018-02-22T02:13:51.853Z,0
2018-02-22T02:14:51.780Z,0
2018-02-22T02:15:51.853Z,0
2018-02-22T02:16:51.784Z,0
2018-02-22T02:17:51.856Z,0
2018-02-22T02:18:51.781Z,0
2018-02-22T02:19:51.860Z,0
2018-02-22T02:20:51.787Z,0
2018-02-22T02:21:51.779Z,0
2018-02-22T02:22:51.864Z,0
2018-02-22T02:23:51.807Z,0
2018-02-22T02:24:51.802Z,0
2018-02-22T02:25:51.895Z,0
2018-02-22T02:26:51.797Z,0
2018-02-22T02:27:51.874Z,0
2018-02-22T02:28:51.769Z,0
2018-02-22T02:29:51.769Z,0
2018-02-22T02:30:51.873Z,0
2018-02-22T02:31:51.804Z,0
2018-02-22T02:32:51.893Z,0
2018-02-22T02:33:51.803Z,0
2018-02-22T02:34:51.879Z,0
2018-02-22T02:35:51.882Z,0
2018-02-22T02:36:51.887Z,0
2018-02-22T02:37:51.880Z,0
2018-02-22T02:38:51.879Z,0
2018-02-22T02:39:51.809Z,0
2018-02-22T02:40:51.883Z,0
2018-02-22T02:41:51.868Z,0
2018-02-22T02:42:51.800Z,0
2018-02-22T02:43:51.870Z,0
2018-02-22T02:44:51.805Z,0
2018-02-22T02:45:51.873Z,0
2018-02-22T02:46:51.802Z,0
2018-02-22T02:47:51.875Z,0
2018-02-22T02:48:51.806Z,0
2018-02-22T02:49:51.879Z,0
2018-02-22T02:50:51.892Z,0
2018-02-22T02:51:51.873Z,0
2018-02-22T02:52:51.787Z,0
2018-02-22T02:53:51.819Z,0
2018-02-22T02:54:51.876Z,0
2018-02-22T02:55:51.821Z,0
2018-02-22T02:56:51.792Z,0
2018-02-22T02:57:51.742Z,0
2018-02-22T02:58:51.751Z,0
2018-02-22T02:59:51.936Z,0
2018-02-22T03:00:51.882Z,0
2018-02-22T03:01:51.795Z,0
2018-02-22T03:02:51.756Z,0
2018-02-22T03:03:51.884Z,0
2018-02-22T03:04:51.758Z,0
2018-02-22T03:05:51.796Z,0
2018-02-22T03:06:51.873Z,0
2018-02-22T03:07:51.782Z,0
2018-02-22T03:08:51.782Z,0
2018-02-22T03:09:51.760Z,0
2018-02-22T03:10:51.767Z,0
2018-02-22T03:11:51.816Z,0
2018-02-22T03:12:51.902Z,0
2018-02-22T03:13:51.858Z,0
2018-02-22T03:14:51.934Z,0
2018-02-22T03:15:51.909Z,0
2018-02-22T03:16:51.875Z,0
2018-02-22T03:17:51.899Z,0
2018-02-22T03:18:51.861Z,0
2018-02-22T03:19:51.832Z,0
2018-02-22T03:20:51.956Z,0
2018-02-22T03:21:51.879Z,0
2018-02-22T03:22:51.896Z,0
2018-02-22T03:23:51.964Z,0
2018-02-22T03:24:51.900Z,0
2018-02-22T03:25:51.841Z,0
2018-02-22T03:26:52.041Z,0
2018-02-22T03:27:51.935Z,0
2018-02-22T03:28:51.938Z,0
2018-02-22T03:29:51.813Z,0
2018-02-22T03:30:51.963Z,0
2018-02-22T03:31:51.912Z,0
2018-02-22T03:32:51.859Z,0
2018-02-22T03:33:51.833Z,0
2018-02-22T03:34:51.881Z,0
2018-02-22T03:35:51.909Z,0
2018-02-22T03:36:51.847Z,0
2018-02-22T03:37:51.909Z,0
2018-02-22T03:38:51.946Z,0
2018-02-22T03:39:51.832Z,0
2018-02-22T03:40:51.911Z,0
2018-02-22T03:41:51.909Z,0
2018-02-22T03:42:51.833Z,0
2018-02-22T03:43:51.910Z,0
2018-02-22T03:44:51.834Z,0
2018-02-22T03:45:51.913Z,0
2018-02-22T03:46:51.832Z,0
2018-02-22T03:47:51.834Z,0
2018-02-22T03:48:51.910Z,0
2018-02-22T03:49:51.836Z,0
2018-02-22T03:50:51.845Z,0
2018-02-22T03:51:51.925Z,0
2018-02-22T03:52:51.856Z,0
2018-02-22T03:53:51.849Z,0
2018-02-22T03:54:51.894Z,0
2018-02-22T03:55:51.925Z,0
2018-02-22T03:56:51.851Z,0
2018-02-22T03:57:51.927Z,0
2018-02-22T03:58:51.930Z,0
2018-02-22T03:59:51.928Z,0
2018-02-22T04:00:51.854Z,0
2018-02-22T04:01:51.965Z,0
2018-02-22T04:02:51.850Z,0
2018-02-22T04:03:51.922Z,0
2018-02-22T04:04:51.928Z,0
2018-02-22T04:05:51.959Z,0
2018-02-22T04:06:51.934Z,0
2018-02-22T04:07:51.950Z,0
2018-02-22T04:08:51.833Z,0
2018-02-22T04:09:51.911Z,0
2018-02-22T04:10:51.933Z,0
2018-02-22T04:11:51.930Z,0
2018-02-22T04:12:51.942Z,0
2018-02-22T04:13:51.967Z,0
2018-02-22T04:14:51.954Z,0
2018-02-22T04:15:51.936Z,0
2018-02-22T04:16:51.935Z,0
2018-02-22T04:17:51.910Z,0
2018-02-22T04:18:51.938Z,0
2018-02-22T04:19:51.993Z,0
2018-02-22T04:20:51.967Z,0
2018-02-22T04:21:51.858Z,0
2018-02-22T04:22:51.855Z,0
2018-02-22T04:23:51.932Z,0
2018-02-22T04:24:51.946Z,0
2018-02-22T04:25:51.862Z,0
2018-02-22T04:26:51.934Z,0
2018-02-22T04:27:51.862Z,0
2018-02-22T04:28:51.935Z,0
2018-02-22T04:29:51.883Z,0
2018-02-22T04:30:51.868Z,0
2018-02-22T04:31:51.873Z,0
2018-02-22T04:32:51.910Z,0
2018-02-22T04:33:51.890Z,0
2018-02-22T04:34:51.876Z,0
2018-02-22T04:35:51.955Z,0
2018-02-22T04:36:51.877Z,0
2018-02-22T04:37:51.879Z,0
2018-02-22T04:38:51.880Z,0
2018-02-22T04:39:51.971Z,0
2018-02-22T04:40:51.882Z,0
2018-02-22T04:41:51.913Z,0
2018-02-22T04:42:51.865Z,0
2018-02-22T04:43:51.973Z,0
2018-02-22T04:44:51.913Z,0
2018-02-22T04:45:51.982Z,0
2018-02-22T04:46:51.977Z,0
2018-02-22T04:47:51.956Z,0
2018-02-22T04:48:51.982Z,0
2018-02-22T04:49:51.868Z,0
2018-02-22T04:50:51.855Z,0
2018-02-22T04:51:51.918Z,0
2018-02-22T04:52:51.926Z,0
2018-02-22T04:53:51.860Z,0
2018-02-22T04:54:51.925Z,0
2018-02-22T04:55:51.929Z,0
2018-02-22T04:56:51.957Z,0
2018-02-22T04:57:51.962Z,0
2018-02-22T04:58:51.986Z,0
2018-02-22T04:59:52.024Z,0
2018-02-22T05:00:51.932Z,0
2018-02-22T05:01:51.922Z,0
2018-02-22T05:02:51.899Z,0
2018-02-22T05:03:51.992Z,0
2018-02-22T05:04:51.921Z,0
2018-02-22T05:05:51.995Z,0
2018-02-22T05:06:52.001Z,0
2018-02-22T05:07:51.934Z,0
2018-02-22T05:08:51.949Z,0
2018-02-22T05:09:51.965Z,0
2018-02-22T05:10:51.890Z,0
2018-02-22T05:11:51.899Z,0
2018-02-22T05:12:51.977Z,0
2018-02-22T05:13:51.904Z,0
2018-02-22T05:14:51.904Z,0
2018-02-22T05:15:51.903Z,0
2018-02-22T05:16:51.902Z,0
2018-02-22T05:17:51.914Z,0
2018-02-22T05:18:51.899Z,0
2018-02-22T05:19:51.908Z,0
2018-02-22T05:20:51.996Z,0
2018-02-22T05:21:51.903Z,0
2018-02-22T05:22:51.907Z,0
2018-02-22T05:23:51.979Z,0
2018-02-22T05:24:51.980Z,0
2018-02-22T05:25:51.979Z,0
2018-02-22T05:26:51.993Z,0
2018-02-22T05:27:51.921Z,0
2018-02-22T05:28:51.984Z,0
2018-02-22T05:29:51.912Z,0
2018-02-22T05:30:51.914Z,0
2018-02-22T05:31:51.850Z,0
2018-02-22T05:32:51.882Z,0
2018-02-22T05:33:51.959Z,0
2018-02-22T05:34:51.852Z,0
2018-02-22T05:35:51.922Z,0
2018-02-22T05:36:51.976Z,0
2018-02-22T05:37:51.943Z,0
2018-02-22T05:38:51.919Z,0
2018-02-22T05:39:51.978Z,0
2018-02-22T05:40:51.918Z,0
2018-02-22T05:41:52.025Z,0
2018-02-22T05:42:52.014Z,0
2018-02-22T05:43:51.950Z,0
2018-02-22T05:44:52.016Z,4
2018-02-22T05:45:51.922Z,4
2018-02-22T05:46:51.951Z,0
2018-02-22T05:47:52.012Z,4
2018-02-22T05:48:51.999Z,4
2018-02-22T05:49:51.987Z,4
2018-02-22T05:50:51.936Z,4
2018-02-22T05:51:51.967Z,8
2018-02-22T05:52:52.029Z,8
2018-02-22T05:53:51.989Z,8
2018-02-22T05:54:52.024Z,12
2018-02-22T05:55:52.018Z,12
2018-02-22T05:56:52.002Z,20
2018-02-22T05:57:51.991Z,24
2018-02-22T05:58:52.019Z,24
2018-02-22T05:59:52.020Z,32
2018-02-22T06:00:51.922Z,40
2018-02-22T06:01:51.980Z,44
2018-02-22T06:02:51.890Z,52
2018-02-22T06:03:51.982Z,64
2018-02-22T06:04:51.899Z,76
2018-02-22T06:05:51.930Z,88
2018-02-22T06:06:51.916Z,104
2018-02-22T06:07:51.877Z,120
2018-02-22T06:08:51.898Z,140
2018-02-22T06:09:51.994Z,164
2018-02-22T06:10:51.995Z,188
2018-02-22T06:11:52.040Z,216
2018-02-22T06:12:51.939Z,244
2018-02-22T06:13:51.982Z,276
2018-02-22T06:14:51.982Z,312
2018-02-22T06:15:51.923Z,348
2018-02-22T06:16:52.030Z,392
2018-02-22T06:17:51.933Z,436
2018-02-22T06:18:52.069Z,484
2018-02-22T06:19:51.945Z,532
2018-02-22T06:20:51.989Z,588
2018-02-22T06:21:51.972Z,648
2018-02-22T06:22:51.914Z,708
2018-02-22T06:23:51.947Z,772
2018-02-22T06:24:51.977Z,840
2018-02-22T06:25:51.913Z,916
2018-02-22T06:26:52.019Z,988
2018-02-22T06:27:52.036Z,1068
2018-02-22T06:28:52.022Z,1152
2018-02-22T06:29:52.041Z,1236
2018-02-22T06:30:52.035Z,1324
2018-02-22T06:31:52.052Z,1424
2018-02-22T06:32:51.991Z,1520
2018-02-22T06:33:51.993Z,1616
2018-02-22T06:34:52.039Z,1724
2018-02-22T06:35:51.985Z,1820
2018-02-22T06:36:51.942Z,1928
2018-02-22T06:37:52.054Z,2032
2018-02-22T06:38:52.018Z,2136
2018-02-22T06:39:51.994Z,2248
2018-02-22T06:40:51.958Z,2360
2018-02-22T06:41:52.048Z,2480
2018-02-22T06:42:51.984Z,2592
2018-02-22T06:43:51.957Z,2712
2018-02-22T06:44:51.925Z,2828
2018-02-22T06:45:52.023Z,2944
2018-02-22T06:46:51.999Z,3052
2018-02-22T06:47:51.946Z,3156
2018-02-22T06:48:52.025Z,3272
2018-02-22T06:49:51.947Z,3396
2018-02-22T06:50:51.948Z,3516
2018-02-22T06:51:51.968Z,3632
2018-02-22T06:52:52.054Z,3732
2018-02-22T06:53:51.963Z,3820
2018-02-22T06:54:52.058Z,3932
2018-02-22T06:55:51.998Z,4148
2018-02-22T06:56:51.969Z,4332
2018-02-22T06:57:52.038Z,4320
2018-02-22T06:58:51.999Z,4360
2018-02-22T06:59:51.949Z,4460
2018-02-22T07:00:52.030Z,4636
2018-02-22T07:01:52.065Z,4892
2018-02-22T07:02:52.046Z,5252
2018-02-22T07:03:51.939Z,6112
2018-02-22T07:04:52.068Z,7040
2018-02-22T07:05:51.975Z,7704
2018-02-22T07:06:51.992Z,8492
2018-02-22T07:07:52.072Z,8924
2018-02-22T07:08:52.071Z,9176
2018-02-22T07:09:52.010Z,9212
2018-02-22T07:10:51.940Z,9520
2018-02-22T07:11:51.942Z,9848
2018-02-22T07:12:51.967Z,9828
2018-02-22T07:13:52.019Z,9936
2018-02-22T07:14:52.063Z,10068
2018-02-22T07:15:52.048Z,10012
2018-02-22T07:16:52.073Z,9916
2018-02-22T07:17:51.981Z,9964
2018-02-22T07:18:52.048Z,10260
2018-02-22T07:19:52.005Z,10720
2018-02-22T07:20:52.066Z,11320
2018-02-22T07:21:52.042Z,12320
2018-02-22T07:22:52.046Z,13204
2018-02-22T07:23:52.044Z,13532
2018-02-22T07:24:51.966Z,14032
2018-02-22T07:25:51.962Z,14384
2018-02-22T07:26:52.083Z,14476
2018-02-22T07:27:52.018Z,14588
2018-02-22T07:28:51.981Z,14664
2018-02-22T07:29:51.948Z,14940
2018-02-22T07:30:52.055Z,15332
2018-02-22T07:31:52.092Z,15832
2018-02-22T07:32:51.921Z,16156
2018-02-22T07:33:52.056Z,16376
2018-02-22T07:34:51.987Z,16860
2018-02-22T07:35:51.940Z,17004
2018-02-22T07:36:52.035Z,17408
2018-02-22T07:37:52.048Z,17848
2018-02-22T07:38:52.044Z,18304
2018-02-22T07:39:52.050Z,19040
2018-02-22T07:40:52.042Z,19296
2018-02-22T07:41:52.050Z,19840
2018-02-22T07:42:51.961Z,20224
2018-02-22T07:43:52.047Z,20480
2018-02-22T07:44:52.048Z,20768
2018-02-22T07:45:52.049Z,21056
2018-02-22T07:46:52.053Z,21408
2018-02-22T07:47:51.981Z,21888
2018-02-22T07:48:51.979Z,22272
2018-02-22T07:49:52.054Z,22432
2018-02-22T07:50:52.009Z,22880
2018-02-22T07:51:51.971Z,23040
2018-02-22T07:52:52.000Z,23456
2018-02-22T07:53:52.066Z,23776
2018-02-22T07:54:52.065Z,24480
2018-02-22T07:55:52.064Z,24576
2018-02-22T07:56:52.070Z,24736
2018-02-22T07:57:52.068Z,25024
2018-02-22T07:58:51.998Z,25600
2018-02-22T07:59:52.002Z,25632
2018-02-22T08:00:51.999Z,25952
2018-02-22T08:01:52.067Z,25760
2018-02-22T08:02:51.993Z,26464
2018-02-22T08:03:52.060Z,26624
2018-02-22T08:04:51.885Z,28128
2018-02-22T08:05:52.009Z,28000
2018-02-22T08:06:51.908Z,28768
2018-02-22T08:07:52.076Z,30080
2018-02-22T08:08:51.914Z,31232
2018-02-22T08:09:51.951Z,32896
2018-02-22T08:10:51.960Z,33056
2018-02-22T08:11:51.978Z,33024
2018-02-22T08:12:52.116Z,34592
2018-02-22T08:13:52.103Z,35392
2018-02-22T08:14:52.014Z,37248
2018-02-22T08:15:52.088Z,35328
2018-02-22T08:16:52.082Z,37760
2018-02-22T08:17:52.004Z,38784
2018-02-22T08:18:52.054Z,35168
2018-02-22T08:19:52.017Z,38560
2018-02-22T08:20:52.115Z,34624
2018-02-22T08:21:52.017Z,46528
2018-02-22T08:22:52.115Z,50336
2018-02-22T08:23:51.984Z,50592
2018-02-22T08:24:52.094Z,54688
2018-02-22T08:25:52.045Z,60704
2018-02-22T08:26:52.054Z,61408
2018-02-22T08:27:52.050Z,56704
2018-02-22T08:28:52.078Z,58912
2018-02-22T08:29:52.118Z,65824
2018-02-22T08:30:52.009Z,69056
2018-02-22T08:31:52.087Z,61184
2018-02-22T08:32:52.086Z,46112
2018-02-22T08:33:52.096Z,41248
2018-02-22T08:34:52.089Z,47264
2018-02-22T08:35:52.027Z,61088
2018-02-22T08:36:52.099Z,64224
2018-02-22T08:37:52.061Z,51776
2018-02-22T08:38:52.090Z,41376
2018-02-22T08:39:52.025Z,24608
2018-02-22T08:40:52.096Z,9408
2018-02-22T08:41:52.021Z,74464
2018-02-22T08:42:52.135Z,140768
2018-02-22T08:43:52.124Z,101504
2018-02-22T08:44:52.120Z,107744
2018-02-22T08:45:52.016Z,248256
2018-02-22T08:46:52.015Z,200288
2018-02-22T08:47:52.093Z,119872
2018-02-22T08:48:52.129Z,212096
2018-02-22T08:49:52.135Z,143840
2018-02-22T08:50:52.129Z,143488
2018-02-22T08:51:52.018Z,135552
2018-02-22T08:52:52.066Z,130784
2018-02-22T08:53:52.104Z,129440
2018-02-22T08:54:52.051Z,126528
2018-02-22T08:55:52.100Z,120576
2018-02-22T08:56:52.033Z,112288
2018-02-22T08:57:52.103Z,106016
2018-02-22T08:58:52.033Z,104000
2018-02-22T08:59:52.101Z,101056
2018-02-22T09:00:52.104Z,97472
2018-02-22T09:01:52.036Z,94272
2018-02-22T09:02:52.030Z,89120
2018-02-22T09:03:52.003Z,86624
2018-02-22T09:04:51.991Z,81472
2018-02-22T09:05:52.055Z,79456
2018-02-22T09:06:52.008Z,77568
2018-02-22T09:07:52.041Z,74720
2018-02-22T09:08:52.099Z,72288
2018-02-22T09:09:52.010Z,70304
2018-02-22T09:10:52.087Z,68960
2018-02-22T09:11:52.044Z,65088
2018-02-22T09:12:52.111Z,58976
2018-02-22T09:13:52.052Z,64736
2018-02-22T09:14:52.130Z,61088
2018-02-22T09:15:52.047Z,62784
2018-02-22T09:16:52.116Z,62720
2018-02-22T09:17:52.043Z,62944
2018-02-22T09:18:52.047Z,63264
2018-02-22T09:19:52.074Z,64640
2018-02-22T09:20:52.057Z,65760
2018-02-22T09:21:52.115Z,66752
2018-02-22T09:22:52.050Z,67968
2018-02-22T09:23:52.048Z,65856
2018-02-22T09:24:52.129Z,67520
2018-02-22T09:25:52.050Z,66240
2018-02-22T09:26:52.118Z,63552
2018-02-22T09:27:52.064Z,68800
2018-02-22T09:28:52.159Z,71328
2018-02-22T09:29:52.126Z,70176
2018-02-22T09:30:52.183Z,66464
2018-02-22T09:31:52.055Z,65536
2018-02-22T09:32:52.101Z,65536
2018-02-22T09:33:52.024Z,65088
2018-02-22T09:34:51.993Z,66048
2018-02-22T09:35:52.087Z,68928
2018-02-22T09:36:52.109Z,73024
2018-02-22T09:37:51.984Z,71584
2018-02-22T09:38:52.081Z,69440
2018-02-22T09:39:52.105Z,67904
2018-02-22T09:40:52.016Z,67264
2018-02-22T09:41:52.057Z,70624
2018-02-22T09:42:52.086Z,72960
2018-02-22T09:43:52.049Z,75424
2018-02-22T09:44:52.094Z,73888
2018-02-22T09:45:52.152Z,71424
2018-02-22T09:46:52.162Z,71168
2018-02-22T09:47:52.092Z,72000
2018-02-22T09:48:52.132Z,71744
2018-02-22T09:49:52.053Z,56128
2018-02-22T09:50:52.099Z,66560
2018-02-22T09:51:52.106Z,26784
2018-02-22T09:52:52.158Z,81376
2018-02-22T09:53:52.135Z,50752
2018-02-22T09:54:52.102Z,81472
2018-02-22T09:55:52.101Z,80608
2018-02-22T09:56:52.099Z,85600
2018-02-22T09:57:52.133Z,85696
2018-02-22T09:58:52.040Z,86688
2018-02-22T09:59:52.055Z,87136
2018-02-22T10:00:52.205Z,87072
2018-02-22T10:01:52.102Z,87520
2018-02-22T10:02:52.092Z,86592
2018-02-22T10:03:52.076Z,86848
2018-02-22T10:04:52.140Z,88064
2018-02-22T10:05:52.078Z,87680
2018-02-22T10:06:52.143Z,86912
2018-02-22T10:07:52.093Z,87328
2018-02-22T10:08:52.950Z,87232
2018-02-22T10:09:52.077Z,88256
2018-02-22T10:10:52.142Z,88992
2018-02-22T10:11:52.149Z,87104
2018-02-22T10:12:52.076Z,87552
2018-02-22T10:13:52.147Z,88608
2018-02-22T10:14:52.082Z,85504
2018-02-22T10:15:52.085Z,84544
2018-02-22T10:16:52.084Z,83616
2018-02-22T10:17:52.148Z,86432
2018-02-22T10:18:52.138Z,86784
2018-02-22T10:19:52.080Z,90336
2018-02-22T10:20:52.082Z,93152
2018-02-22T10:21:52.105Z,95360
2018-02-22T10:22:52.159Z,98336
2018-02-22T10:23:52.149Z,96992
2018-02-22T10:24:52.058Z,95744
2018-02-22T10:25:52.076Z,96352
2018-02-22T10:26:52.208Z,99232
2018-02-22T10:27:52.131Z,96128
2018-02-22T10:28:52.121Z,51872
2018-02-22T10:29:52.054Z,96608
2018-02-22T10:30:52.156Z,94080
2018-02-22T10:31:52.160Z,87616
2018-02-22T10:32:52.113Z,82720
2018-02-22T10:33:52.184Z,42848
2018-02-22T10:34:52.190Z,87200
2018-02-22T10:35:52.135Z,34560
2018-02-22T10:36:52.135Z,88992
2018-02-22T10:37:52.193Z,90528
2018-02-22T10:38:52.195Z,88736
2018-02-22T10:39:52.120Z,60672
2018-02-22T10:40:52.197Z,53216
2018-02-22T10:41:52.126Z,33504
2018-02-22T10:42:52.192Z,94048
2018-02-22T10:43:52.164Z,97600
2018-02-22T10:44:52.197Z,99104
2018-02-22T10:45:52.202Z,31040
2018-02-22T10:46:52.161Z,28224
2018-02-22T10:47:52.133Z,27872
2018-02-22T10:48:52.147Z,24608
2018-02-22T10:49:52.186Z,24640
2018-02-22T10:50:52.140Z,25344
2018-02-22T10:51:52.136Z,25824
2018-02-22T10:52:52.149Z,26528
2018-02-22T10:53:52.189Z,25504
2018-02-22T10:54:52.103Z,22752
2018-02-22T10:55:52.128Z,21012
2018-02-22T10:56:52.153Z,21716
2018-02-22T10:57:52.194Z,25536
2018-02-22T10:58:52.168Z,89728
2018-02-22T10:59:52.173Z,50720
2018-02-22T11:00:52.193Z,81120
2018-02-22T11:01:52.081Z,31488
2018-02-22T11:02:52.168Z,22536
2018-02-22T11:03:52.169Z,22572
2018-02-22T11:04:52.171Z,27392
2018-02-22T11:05:52.084Z,28320
2018-02-22T11:06:52.172Z,77536
2018-02-22T11:07:52.082Z,33920
2018-02-22T11:08:52.142Z,28736
2018-02-22T11:09:52.122Z,19640
2018-02-22T11:10:52.141Z,19680
2018-02-22T11:11:52.115Z,20212
2018-02-22T11:12:52.113Z,22016
2018-02-22T11:13:52.113Z,78752
2018-02-22T11:14:52.114Z,62048
2018-02-22T11:15:52.183Z,79008
2018-02-22T11:16:52.114Z,62944
2018-02-22T11:17:52.188Z,32736
2018-02-22T11:18:52.119Z,82688
2018-02-22T11:19:52.194Z,45216
2018-02-22T11:20:52.228Z,31200
2018-02-22T11:21:52.190Z,34784
2018-02-22T11:22:52.194Z,25120
2018-02-22T11:23:52.126Z,19360
2018-02-22T11:24:52.126Z,18020
2018-02-22T11:25:52.194Z,20168
2018-02-22T11:26:52.122Z,20768
2018-02-22T11:27:52.192Z,19968
2018-02-22T11:28:52.124Z,19032
2018-02-22T11:29:52.193Z,20120
2018-02-22T11:30:52.125Z,20432
2018-02-22T11:31:52.126Z,20924
2018-02-22T11:32:52.191Z,19084
2018-02-22T11:33:52.176Z,20368
2018-02-22T11:34:52.222Z,20728
2018-02-22T11:35:52.227Z,20020
2018-02-22T11:36:52.219Z,22784
2018-02-22T11:37:52.152Z,25280
2018-02-22T11:38:52.098Z,22624
2018-02-22T11:39:52.225Z,23808
2018-02-22T11:40:52.121Z,25952
2018-02-22T11:41:52.217Z,27168
2018-02-22T11:42:52.107Z,26176
2018-02-22T11:43:52.118Z,26048
2018-02-22T11:44:52.216Z,27456
2018-02-22T11:45:52.231Z,28352
2018-02-22T11:46:52.122Z,30784
2018-02-22T11:47:52.087Z,30304
2018-02-22T11:48:52.126Z,31968
2018-02-22T11:49:52.192Z,33472
2018-02-22T11:50:52.194Z,33792
2018-02-22T11:51:52.233Z,57952
2018-02-22T11:52:52.185Z,31904
2018-02-22T11:53:52.205Z,27168
2018-02-22T11:54:52.182Z,22752
2018-02-22T11:55:52.255Z,23392
2018-02-22T11:56:52.249Z,26688
2018-02-22T11:57:52.201Z,27136
2018-02-22T11:58:52.153Z,27808
2018-02-22T11:59:52.167Z,31936
2018-02-22T12:00:52.128Z,33664
2018-02-22T12:01:52.174Z,34816
2018-02-22T12:02:52.208Z,30656
2018-02-22T12:03:52.124Z,27360
2018-02-22T12:04:52.182Z,25824
2018-02-22T12:05:52.215Z,21664
2018-02-22T12:06:52.192Z,24704
2018-02-22T12:07:52.238Z,43040
2018-02-22T12:08:52.183Z,23008
2018-02-22T12:09:52.246Z,24320
2018-02-22T12:10:52.180Z,26464
2018-02-22T12:11:52.156Z,28032
2018-02-22T12:12:52.220Z,29056
2018-02-22T12:13:52.155Z,26432
2018-02-22T12:14:52.150Z,24864
2018-02-22T12:15:52.221Z,30048
2018-02-22T12:16:52.153Z,51904
2018-02-22T12:17:52.152Z,31808
2018-02-22T12:18:52.273Z,32672
2018-02-22T12:19:52.164Z,27680
2018-02-22T12:20:52.157Z,32320
2018-02-22T12:21:52.155Z,32544
2018-02-22T12:22:52.193Z,32736
2018-02-22T12:23:52.261Z,28704
2018-02-22T12:24:52.219Z,26944
2018-02-22T12:25:52.191Z,27104
2018-02-22T12:26:52.173Z,24160
2018-02-22T12:27:52.134Z,25504
2018-02-22T12:28:52.200Z,24224
2018-02-22T12:29:52.255Z,22124
2018-02-22T12:30:52.167Z,22392
2018-02-22T12:31:52.252Z,20772
2018-02-22T12:32:52.231Z,20920
2018-02-22T12:33:52.164Z,20380
2018-02-22T12:34:52.162Z,17020
2018-02-22T12:35:52.232Z,16636
2018-02-22T12:36:52.167Z,19468
2018-02-22T12:37:52.239Z,23328
2018-02-22T12:38:52.166Z,23360
2018-02-22T12:39:52.239Z,27904
2018-02-22T12:40:52.118Z,23712
2018-02-22T12:41:52.180Z,24608
2018-02-22T12:42:52.269Z,20716
2018-02-22T12:43:52.203Z,20116
2018-02-22T12:44:52.269Z,23264
2018-02-22T12:45:52.245Z,75904
2018-02-22T12:46:52.196Z,75040
2018-02-22T12:47:52.160Z,61792
2018-02-22T12:48:52.272Z,71904
2018-02-22T12:49:52.260Z,36224
2018-02-22T12:50:52.264Z,65088
2018-02-22T12:51:52.200Z,30720
2018-02-22T12:52:52.234Z,39968
2018-02-22T12:53:52.276Z,73536
2018-02-22T12:54:52.208Z,72544
2018-02-22T12:55:52.282Z,74848
2018-02-22T12:56:52.225Z,70560
2018-02-22T12:57:52.216Z,70592
2018-02-22T12:58:52.250Z,38464
2018-02-22T12:59:52.286Z,24960
2018-02-22T13:00:52.261Z,24064
2018-02-22T13:01:52.183Z,25504
2018-02-22T13:02:52.114Z,22088
2018-02-22T13:03:52.227Z,21812
2018-02-22T13:04:52.184Z,24192
2018-02-22T13:05:52.171Z,24896
2018-02-22T13:06:52.120Z,25696
2018-02-22T13:07:52.159Z,23104
2018-02-22T13:08:52.180Z,27424
2018-02-22T13:09:52.145Z,29344
2018-02-22T13:10:52.171Z,74176
2018-02-22T13:11:52.238Z,73088
2018-02-22T13:12:52.161Z,37920
2018-02-22T13:13:52.158Z,40448
2018-02-22T13:14:52.275Z,65376
2018-02-22T13:15:52.235Z,69792
2018-02-22T13:16:52.216Z,28512
2018-02-22T13:17:52.178Z,31360
2018-02-22T13:18:52.157Z,74688
2018-02-22T13:19:52.222Z,32640
2018-02-22T13:20:52.216Z,71360
2018-02-22T13:21:52.294Z,73536
2018-02-22T13:22:52.257Z,39616
2018-02-22T13:23:52.260Z,47392
2018-02-22T13:24:52.198Z,28320
2018-02-22T13:25:52.163Z,75840
2018-02-22T13:26:52.205Z,78592
2018-02-22T13:27:52.263Z,78720
2018-02-22T13:28:52.265Z,79136
2018-02-22T13:29:52.197Z,80704
2018-02-22T13:30:52.270Z,76768
2018-02-22T13:31:52.268Z,74816
2018-02-22T13:32:52.199Z,73216
2018-02-22T13:33:52.273Z,73280
2018-02-22T13:34:52.227Z,69312
2018-02-22T13:35:52.201Z,26304
2018-02-22T13:36:52.273Z,34336
2018-02-22T13:37:52.202Z,24032
2018-02-22T13:38:52.273Z,24480
2018-02-22T13:39:52.206Z,44064
2018-02-22T13:40:52.214Z,30816
2018-02-22T13:41:52.280Z,17420